Allison, Illinois
Current Conditions -  °F | °C
As of 1:53 AM on Saturday 20 Dec 2014 (Local Time) from KLWV Reporting Station
Light Snow Light Snow  
Wind Chill: 30°   Ceiling: 4800
Heat Index: 30°   Visibility: 4mi
Dew Point: 27°   Wind: 0mph
Humidity: 88%   Direction: NA
Pressure: 30.3"   Gusts: NA
Location:  38.7501°N, 87.6141°W
Report Text: KLWV 200753Z AUTO 00000KT 4SM -SN BR OVC048 M01/M03 A3030 RMK AO2 SNE15B34 SLP265 P0000 T10111028
Loading
Personal Weather Stations






























Interactive Weather Map New forecast layout! Learn more

10-Day Weather Forecast

Advertisements
Track Severe Weather on mobile